sensor_id;sensor_type;location;lat;lon;timestamp;pressure;altitude;pressure_sealevel;temperature;humidity
42633;BME280;28261;53.304;-6.284;2023-08-08T00:01:20;101135.28;;;14.16;99.01
42633;BME280;28261;53.304;-6.284;2023-08-08T00:03:24;101133.47;;;14.16;99.28
42633;BME280;28261;53.304;-6.284;2023-08-08T00:05:28;101132.47;;;14.17;99.50
42633;BME280;28261;53.304;-6.284;2023-08-08T00:07:33;101122.56;;;14.19;99.61
42633;BME280;28261;53.304;-6.284;2023-08-08T00:09:37;101125.13;;;14.21;99.35
42633;BME280;28261;53.304;-6.284;2023-08-08T00:11:40;101117.84;;;14.23;99.55
42633;BME280;28261;53.304;-6.284;2023-08-08T00:13:45;101116.78;;;14.26;99.67
42633;BME280;28261;53.304;-6.284;2023-08-08T00:15:49;101121.00;;;14.28;99.67
42633;BME280;28261;53.304;-6.284;2023-08-08T00:17:53;101106.81;;;14.28;99.59
42633;BME280;28261;53.304;-6.284;2023-08-08T00:19:57;101103.19;;;14.29;99.89
42633;BME280;28261;53.304;-6.284;2023-08-08T00:22:01;101103.09;;;14.30;99.75
42633;BME280;28261;53.304;-6.284;2023-08-08T00:24:06;101098.47;;;14.32;99.81
42633;BME280;28261;53.304;-6.284;2023-08-08T00:26:10;101100.28;;;14.32;99.99
42633;BME280;28261;53.304;-6.284;2023-08-08T00:28:13;101093.13;;;14.32;99.87
42633;BME280;28261;53.304;-6.284;2023-08-08T00:30:18;101089.63;;;14.32;100.00
42633;BME280;28261;53.304;-6.284;2023-08-08T00:32:22;101085.03;;;14.34;100.00
42633;BME280;28261;53.304;-6.284;2023-08-08T00:34:25;101091.22;;;14.34;100.00
42633;BME280;28261;53.304;-6.284;2023-08-08T00:36:29;101090.38;;;14.34;100.00
42633;BME280;28261;53.304;-6.284;2023-08-08T00:38:33;101084.91;;;14.35;100.00
42633;BME280;28261;53.304;-6.284;2023-08-08T00:40:37;101092.91;;;14.35;100.00
42633;BME280;28261;53.304;-6.284;2023-08-08T00:42:41;101084.91;;;14.35;100.00
42633;BME280;28261;53.304;-6.284;2023-08-08T00:44:45;101077.75;;;14.36;100.00
42633;BME280;28261;53.304;-6.284;2023-08-08T00:46:49;101088.28;;;14.37;100.00
42633;BME280;28261;53.304;-6.284;2023-08-08T00:48:53;101082.97;;;14.37;100.00
42633;BME280;28261;53.304;-6.284;2023-08-08T00:50:57;101087.34;;;14.38;100.00
42633;BME280;28261;53.304;-6.284;2023-08-08T00:53:01;101087.22;;;14.40;100.00
42633;BME280;28261;53.304;-6.284;2023-08-08T00:55:06;101084.53;;;14.40;100.00
42633;BME280;28261;53.304;-6.284;2023-08-08T00:57:12;101086.25;;;14.41;100.00
42633;BME280;28261;53.304;-6.284;2023-08-08T00:59:18;101083.59;;;14.41;100.00
42633;BME280;28261;53.304;-6.284;2023-08-08T01:01:22;101075.59;;;14.41;100.00
42633;BME280;28261;53.304;-6.284;2023-08-08T01:03:26;101070.25;;;14.41;100.00
42633;BME280;28261;53.304;-6.284;2023-08-08T01:05:32;101077.50;;;14.39;100.00
42633;BME280;28261;53.304;-6.284;2023-08-08T01:07:43;101074.84;;;14.39;100.00
42633;BME280;28261;53.304;-6.284;2023-08-08T01:09:50;101079.47;;;14.37;100.00
42633;BME280;28261;53.304;-6.284;2023-08-08T01:11:56;101068.78;;;14.37;100.00
42633;BME280;28261;53.304;-6.284;2023-08-08T01:14:03;101082.97;;;14.37;100.00
42633;BME280;28261;53.304;-6.284;2023-08-08T01:16:10;101074.97;;;14.37;100.00
42633;BME280;28261;53.304;-6.284;2023-08-08T01:18:13;101073.25;;;14.36;100.00
42633;BME280;28261;53.304;-6.284;2023-08-08T01:20:19;101073.25;;;14.36;100.00
42633;BME280;28261;53.304;-6.284;2023-08-08T01:22:36;101074.13;;;14.37;100.00
42633;BME280;28261;53.304;-6.284;2023-08-08T01:24:42;101067.09;;;14.36;100.00
42633;BME280;28261;53.304;-6.284;2023-08-08T01:26:47;101072.41;;;14.36;100.00
42633;BME280;28261;53.304;-6.284;2023-08-08T01:28:53;101075.22;;;14.34;100.00
42633;BME280;28261;53.304;-6.284;2023-08-08T01:30:57;101073.50;;;14.33;100.00
42633;BME280;28261;53.304;-6.284;2023-08-08T01:33:02;101072.66;;;14.33;100.00
42633;BME280;28261;53.304;-6.284;2023-08-08T01:35:06;101068.41;;;14.30;100.00
42633;BME280;28261;53.304;-6.284;2023-08-08T01:37:14;101073.63;;;14.32;100.00
42633;BME280;28261;53.304;-6.284;2023-08-08T01:39:24;101067.56;;;14.30;100.00
42633;BME280;28261;53.304;-6.284;2023-08-08T01:41:30;101069.25;;;14.31;100.00
42633;BME280;28261;53.304;-6.284;2023-08-08T01:43:38;101076.28;;;14.32;100.00
42633;BME280;28261;53.304;-6.284;2023-08-08T01:45:43;101071.19;;;14.29;100.00
42633;BME280;28261;53.304;-6.284;2023-08-08T01:47:49;101069.50;;;14.28;100.00
42633;BME280;28261;53.304;-6.284;2023-08-08T01:49:52;101069.50;;;14.28;100.00
42633;BME280;28261;53.304;-6.284;2023-08-08T01:51:58;101065.13;;;14.27;100.00
42633;BME280;28261;53.304;-6.284;2023-08-08T01:54:02;101065.13;;;14.27;100.00
42633;BME280;28261;53.304;-6.284;2023-08-08T01:56:05;101063.44;;;14.26;100.00
42633;BME280;28261;53.304;-6.284;2023-08-08T01:58:12;101070.69;;;14.24;100.00
42633;BME280;28261;53.304;-6.284;2023-08-08T02:00:16;101070.69;;;14.24;100.00
42633;BME280;28261;53.304;-6.284;2023-08-08T02:02:20;101076.03;;;14.24;100.00
42633;BME280;28261;53.304;-6.284;2023-08-08T02:04:24;101068.88;;;14.24;100.00
42633;BME280;28261;53.304;-6.284;2023-08-08T02:06:27;101063.44;;;14.26;100.00
42633;BME280;28261;53.304;-6.284;2023-08-08T02:08:30;101062.69;;;14.24;100.00
42633;BME280;28261;53.304;-6.284;2023-08-08T02:10:36;101060.28;;;14.20;100.00
42633;BME280;28261;53.304;-6.284;2023-08-08T02:12:40;101065.72;;;14.19;100.00
42633;BME280;28261;53.304;-6.284;2023-08-08T02:14:46;101056.88;;;14.18;100.00
42633;BME280;28261;53.304;-6.284;2023-08-08T02:16:50;101059.78;;;14.15;100.00
42633;BME280;28261;53.304;-6.284;2023-08-08T02:18:53;101048.28;;;14.15;100.00
42633;BME280;28261;53.304;-6.284;2023-08-08T02:20:57;101045.69;;;14.13;100.00
42633;BME280;28261;53.304;-6.284;2023-08-08T02:23:01;101047.66;;;14.11;100.00
42633;BME280;28261;53.304;-6.284;2023-08-08T02:25:06;101045.22;;;14.08;100.00
42633;BME280;28261;53.304;-6.284;2023-08-08T02:27:11;101043.03;;;14.02;100.00
42633;BME280;28261;53.304;-6.284;2023-08-08T02:29:16;101036.47;;;13.95;100.00
42633;BME280;28261;53.304;-6.284;2023-08-08T02:31:21;101040.56;;;13.87;100.00
42633;BME280;28261;53.304;-6.284;2023-08-08T02:33:25;101044.44;;;13.83;100.00
42633;BME280;28261;53.304;-6.284;2023-08-08T02:35:30;101040.06;;;13.82;100.00
42633;BME280;28261;53.304;-6.284;2023-08-08T02:37:34;101043.56;;;13.83;100.00
42633;BME280;28261;53.304;-6.284;2023-08-08T02:39:37;101042.63;;;13.84;100.00
42633;BME280;28261;53.304;-6.284;2023-08-08T02:41:41;101045.28;;;13.84;100.00
42633;BME280;28261;53.304;-6.284;2023-08-08T02:43:44;101036.44;;;13.83;100.00
42633;BME280;28261;53.304;-6.284;2023-08-08T02:45:48;101040.78;;;13.84;100.00
42633;BME280;28261;53.304;-6.284;2023-08-08T02:47:53;101034.63;;;13.84;100.00
42633;BME280;28261;53.304;-6.284;2023-08-08T02:49:58;101040.78;;;13.84;100.00
42633;BME280;28261;53.304;-6.284;2023-08-08T02:52:02;101043.44;;;13.84;100.00
42633;BME280;28261;53.304;-6.284;2023-08-08T02:54:08;101045.16;;;13.85;100.00
42633;BME280;28261;53.304;-6.284;2023-08-08T02:56:15;101041.53;;;13.86;100.00
42633;BME280;28261;53.304;-6.284;2023-08-08T02:58:18;101043.25;;;13.87;100.00
42633;BME280;28261;53.304;-6.284;2023-08-08T03:00:22;101040.56;;;13.87;100.00
42633;BME280;28261;53.304;-6.284;2023-08-08T03:02:28;101029.03;;;13.87;100.00
42633;BME280;28261;53.304;-6.284;2023-08-08T03:04:33;101036.31;;;13.85;100.00
42633;BME280;28261;53.304;-6.284;2023-08-08T03:06:37;101030.13;;;13.84;100.00
42633;BME280;28261;53.304;-6.284;2023-08-08T03:08:41;101023.13;;;13.83;100.00
42633;BME280;28261;53.304;-6.284;2023-08-08T03:10:44;101026.75;;;13.82;100.00
42633;BME280;28261;53.304;-6.284;2023-08-08T03:12:48;101014.38;;;13.81;100.00
42633;BME280;28261;53.304;-6.284;2023-08-08T03:14:53;101019.72;;;13.81;100.00
42633;BME280;28261;53.304;-6.284;2023-08-08T03:16:57;101027.69;;;13.81;100.00
42633;BME280;28261;53.304;-6.284;2023-08-08T03:19:03;101024.91;;;13.83;100.00
42633;BME280;28261;53.304;-6.284;2023-08-08T03:21:07;101023.13;;;13.83;100.00
42633;BME280;28261;53.304;-6.284;2023-08-08T03:23:11;101027.47;;;13.84;100.00
42633;BME280;28261;53.304;-6.284;2023-08-08T03:25:15;101021.41;;;13.82;100.00
42633;BME280;28261;53.304;-6.284;2023-08-08T03:27:18;101018.88;;;13.81;100.00
42633;BME280;28261;53.304;-6.284;2023-08-08T03:29:25;101016.09;;;13.82;100.00
42633;BME280;28261;53.304;-6.284;2023-08-08T03:31:31;101013.75;;;13.78;100.00
42633;BME280;28261;53.304;-6.284;2023-08-08T03:33:38;101027.94;;;13.78;100.00
42633;BME280;28261;53.304;-6.284;2023-08-08T03:35:44;101026.34;;;13.76;100.00
42633;BME280;28261;53.304;-6.284;2023-08-08T03:37:51;101026.59;;;13.73;100.00
42633;BME280;28261;53.304;-6.284;2023-08-08T03:39:55;101026.81;;;13.69;100.00
42633;BME280;28261;53.304;-6.284;2023-08-08T03:41:59;101033.34;;;13.65;100.00
42633;BME280;28261;53.304;-6.284;2023-08-08T03:44:04;101029.19;;;13.61;100.00
42633;BME280;28261;53.304;-6.284;2023-08-08T03:46:08;101026.88;;;13.57;100.00
42633;BME280;28261;53.304;-6.284;2023-08-08T03:48:13;101021.81;;;13.53;100.00
42633;BME280;28261;53.304;-6.284;2023-08-08T03:50:17;101028.09;;;13.52;100.00
42633;BME280;28261;53.304;-6.284;2023-08-08T03:52:21;101023.00;;;13.49;100.00
42633;BME280;28261;53.304;-6.284;2023-08-08T03:54:27;101027.69;;;13.46;100.00
42633;BME280;28261;53.304;-6.284;2023-08-08T03:56:31;101028.66;;;13.45;100.00
42633;BME280;28261;53.304;-6.284;2023-08-08T03:58:34;101020.78;;;13.43;100.00
42633;BME280;28261;53.304;-6.284;2023-08-08T04:00:38;101023.44;;;13.43;100.00
42633;BME280;28261;53.304;-6.284;2023-08-08T04:02:48;101015.44;;;13.43;100.00
42633;BME280;28261;53.304;-6.284;2023-08-08T04:04:53;101014.50;;;13.44;100.00
42633;BME280;28261;53.304;-6.284;2023-08-08T04:06:57;101009.28;;;13.43;100.00
42633;BME280;28261;53.304;-6.284;2023-08-08T04:09:00;101011.09;;;13.42;100.00
42633;BME280;28261;53.304;-6.284;2023-08-08T04:11:06;101013.97;;;13.39;100.00
42633;BME280;28261;53.304;-6.284;2023-08-08T04:13:09;101015.94;;;13.37;100.00
42633;BME280;28261;53.304;-6.284;2023-08-08T04:15:13;101011.44;;;13.37;100.00
42633;BME280;28261;53.304;-6.284;2023-08-08T04:17:16;101015.94;;;13.37;100.00
42633;BME280;28261;53.304;-6.284;2023-08-08T04:19:19;101005.44;;;13.34;100.00
42633;BME280;28261;53.304;-6.284;2023-08-08T04:21:23;100999.41;;;13.32;100.00
42633;BME280;28261;53.304;-6.284;2023-08-08T04:23:29;100994.19;;;13.30;100.00
42633;BME280;28261;53.304;-6.284;2023-08-08T04:25:33;100997.94;;;13.28;100.00
42633;BME280;28261;53.304;-6.284;2023-08-08T04:27:38;100994.63;;;13.24;100.00
42633;BME280;28261;53.304;-6.284;2023-08-08T04:29:42;100990.63;;;13.18;100.00
42633;BME280;28261;53.304;-6.284;2023-08-08T04:31:45;100991.81;;;13.14;100.00
42633;BME280;28261;53.304;-6.284;2023-08-08T04:33:49;100986.84;;;13.10;100.00
42633;BME280;28261;53.304;-6.284;2023-08-08T04:35:53;100983.66;;;13.04;100.00
42633;BME280;28261;53.304;-6.284;2023-08-08T04:37:56;100981.34;;;13.00;100.00
42633;BME280;28261;53.304;-6.284;2023-08-08T04:39:59;100979.88;;;12.96;100.00
42633;BME280;28261;53.304;-6.284;2023-08-08T04:42:04;100982.00;;;12.91;100.00
42633;BME280;28261;53.304;-6.284;2023-08-08T04:44:09;100986.69;;;12.87;100.00
42633;BME280;28261;53.304;-6.284;2023-08-08T04:46:13;100979.78;;;12.84;100.00
42633;BME280;28261;53.304;-6.284;2023-08-08T04:48:16;100979.06;;;12.82;100.00
42633;BME280;28261;53.304;-6.284;2023-08-08T04:50:20;100979.25;;;12.79;100.00
42633;BME280;28261;53.304;-6.284;2023-08-08T04:52:24;100982.91;;;12.78;100.00
42633;BME280;28261;53.304;-6.284;2023-08-08T04:54:26;100983.97;;;12.76;100.00
42633;BME280;28261;53.304;-6.284;2023-08-08T04:56:30;100978.75;;;12.74;100.00
42633;BME280;28261;53.304;-6.284;2023-08-08T04:58:34;100977.16;;;12.72;100.00
42633;BME280;28261;53.304;-6.284;2023-08-08T05:00:39;100972.91;;;12.69;100.00
42633;BME280;28261;53.304;-6.284;2023-08-08T05:02:42;100965.88;;;12.68;100.00
42633;BME280;28261;53.304;-6.284;2023-08-08T05:04:46;100965.78;;;12.69;100.00
42633;BME280;28261;53.304;-6.284;2023-08-08T05:06:50;100976.31;;;12.71;100.00
42633;BME280;28261;53.304;-6.284;2023-08-08T05:08:54;100970.03;;;12.72;100.00
42633;BME280;28261;53.304;-6.284;2023-08-08T05:10:59;100974.41;;;12.73;100.00
42633;BME280;28261;53.304;-6.284;2023-08-08T05:13:02;100963.75;;;12.73;100.00
42633;BME280;28261;53.304;-6.284;2023-08-08T05:15:07;100967.25;;;12.74;100.00
42633;BME280;28261;53.304;-6.284;2023-08-08T05:17:12;100959.16;;;12.75;100.00
42633;BME280;28261;53.304;-6.284;2023-08-08T05:19:15;100963.53;;;12.76;100.00
42633;BME280;28261;53.304;-6.284;2023-08-08T05:21:19;100959.91;;;12.77;100.00
42633;BME280;28261;53.304;-6.284;2023-08-08T05:23:23;100960.03;;;12.76;100.00
42633;BME280;28261;53.304;-6.284;2023-08-08T05:25:27;100964.41;;;12.77;100.00
42633;BME280;28261;53.304;-6.284;2023-08-08T05:27:30;100959.06;;;12.77;100.00
42633;BME280;28261;53.304;-6.284;2023-08-08T05:29:33;100972.38;;;12.77;100.00
42633;BME280;28261;53.304;-6.284;2023-08-08T05:31:40;100969.78;;;12.75;100.00
42633;BME280;28261;53.304;-6.284;2023-08-08T05:33:45;100966.94;;;12.78;100.00
42633;BME280;28261;53.304;-6.284;2023-08-08T05:35:48;100967.88;;;12.77;100.00
42633;BME280;28261;53.304;-6.284;2023-08-08T05:37:52;100972.03;;;12.81;100.00
42633;BME280;28261;53.304;-6.284;2023-08-08T05:39:55;100977.34;;;12.81;100.00
42633;BME280;28261;53.304;-6.284;2023-08-08T05:41:59;100962.97;;;12.84;100.00
42633;BME280;28261;53.304;-6.284;2023-08-08T05:44:04;100971.47;;;12.89;100.00
42633;BME280;28261;53.304;-6.284;2023-08-08T05:46:08;100963.03;;;12.95;100.00
42633;BME280;28261;53.304;-6.284;2023-08-08T05:48:12;100967.06;;;13.01;100.00
42633;BME280;28261;53.304;-6.284;2023-08-08T05:50:18;100970.00;;;13.09;100.00
42633;BME280;28261;53.304;-6.284;2023-08-08T05:52:23;100972.34;;;13.14;100.00
42633;BME280;28261;53.304;-6.284;2023-08-08T05:54:28;100973.81;;;13.18;100.00
42633;BME280;28261;53.304;-6.284;2023-08-08T05:56:35;100977.81;;;13.24;100.00
42633;BME280;28261;53.304;-6.284;2023-08-08T05:58:40;100973.50;;;13.34;100.00
42633;BME280;28261;53.304;-6.284;2023-08-08T06:00:44;100975.19;;;13.48;100.00
42633;BME280;28261;53.304;-6.284;2023-08-08T06:02:48;100977.63;;;13.62;100.00
42633;BME280;28261;53.304;-6.284;2023-08-08T06:04:53;100983.72;;;13.76;100.00
42633;BME280;28261;53.304;-6.284;2023-08-08T06:06:58;100985.00;;;13.94;100.00
42633;BME280;28261;53.304;-6.284;2023-08-08T06:09:03;100981.50;;;14.16;100.00
42633;BME280;28261;53.304;-6.284;2023-08-08T06:11:08;100971.78;;;14.61;100.00
42633;BME280;28261;53.304;-6.284;2023-08-08T06:13:13;100970.34;;;15.23;100.00
42633;BME280;28261;53.304;-6.284;2023-08-08T06:15:18;100970.19;;;15.78;100.00
42633;BME280;28261;53.304;-6.284;2023-08-08T06:17:22;100961.03;;;16.02;100.00
42633;BME280;28261;53.304;-6.284;2023-08-08T06:19:27;100962.75;;;16.03;100.00
42633;BME280;28261;53.304;-6.284;2023-08-08T06:21:32;100959.94;;;16.04;100.00
42633;BME280;28261;53.304;-6.284;2023-08-08T06:23:38;100950.19;;;16.24;99.91
42633;BME280;28261;53.304;-6.284;2023-08-08T06:25:42;100948.06;;;16.69;98.91
42633;BME280;28261;53.304;-6.284;2023-08-08T06:27:46;100960.69;;;17.47;95.13
42633;BME280;28261;53.304;-6.284;2023-08-08T06:29:52;100962.50;;;18.33;90.19
42633;BME280;28261;53.304;-6.284;2023-08-08T06:31:56;100972.22;;;18.99;86.57
42633;BME280;28261;53.304;-6.284;2023-08-08T06:34:00;100957.41;;;19.49;83.65
42633;BME280;28261;53.304;-6.284;2023-08-08T06:36:05;100961.88;;;19.67;82.00
42633;BME280;28261;53.304;-6.284;2023-08-08T06:38:09;100950.59;;;19.45;82.12
42633;BME280;28261;53.304;-6.284;2023-08-08T06:40:14;100962.09;;;19.11;84.10
42633;BME280;28261;53.304;-6.284;2023-08-08T06:42:19;100966.97;;;18.70;85.19
42633;BME280;28261;53.304;-6.284;2023-08-08T06:44:32;100972.00;;;18.27;86.66
42633;BME280;28261;53.304;-6.284;2023-08-08T06:46:37;100972.25;;;17.96;88.66
42633;BME280;28261;53.304;-6.284;2023-08-08T06:48:42;100973.09;;;17.67;89.52
42633;BME280;28261;53.304;-6.284;2023-08-08T06:50:47;100963.25;;;17.29;90.77
42633;BME280;28261;53.304;-6.284;2023-08-08T06:52:51;100954.91;;;16.92;93.30
42633;BME280;28261;53.304;-6.284;2023-08-08T06:54:56;100960.22;;;16.83;94.78
42633;BME280;28261;53.304;-6.284;2023-08-08T06:57:02;100958.53;;;16.72;94.67
42633;BME280;28261;53.304;-6.284;2023-08-08T06:59:06;100962.16;;;16.71;95.28
42633;BME280;28261;53.304;-6.284;2023-08-08T07:01:11;100964.69;;;16.63;95.01
42633;BME280;28261;53.304;-6.284;2023-08-08T07:03:15;100966.88;;;16.48;95.36
42633;BME280;28261;53.304;-6.284;2023-08-08T07:05:20;100967.66;;;16.69;95.90
42633;BME280;28261;53.304;-6.284;2023-08-08T07:07:25;100953.53;;;17.08;92.72
42633;BME280;28261;53.304;-6.284;2023-08-08T07:09:31;100964.66;;;17.03;92.22
42633;BME280;28261;53.304;-6.284;2023-08-08T07:11:37;100967.34;;;17.13;92.19
42633;BME280;28261;53.304;-6.284;2023-08-08T07:13:42;100968.47;;;17.11;91.25
42633;BME280;28261;53.304;-6.284;2023-08-08T07:15:47;100958.03;;;17.17;90.67
42633;BME280;28261;53.304;-6.284;2023-08-08T07:17:51;100962.00;;;17.13;90.46
42633;BME280;28261;53.304;-6.284;2023-08-08T07:19:55;100957.75;;;17.01;91.25
42633;BME280;28261;53.304;-6.284;2023-08-08T07:22:00;100939.16;;;17.09;91.02
42633;BME280;28261;53.304;-6.284;2023-08-08T07:24:05;100950.16;;;17.25;90.64
42633;BME280;28261;53.304;-6.284;2023-08-08T07:26:09;100948.56;;;17.62;88.43
42633;BME280;28261;53.304;-6.284;2023-08-08T07:28:13;100939.78;;;17.70;87.27
42633;BME280;28261;53.304;-6.284;2023-08-08T07:30:18;100938.50;;;17.74;87.07
42633;BME280;28261;53.304;-6.284;2023-08-08T07:32:22;100948.38;;;17.83;86.92
42633;BME280;28261;53.304;-6.284;2023-08-08T07:34:27;100942.47;;;17.70;86.93
42633;BME280;28261;53.304;-6.284;2023-08-08T07:36:31;100936.56;;;17.66;87.28
42633;BME280;28261;53.304;-6.284;2023-08-08T07:38:35;100944.00;;;17.82;86.55
42633;BME280;28261;53.304;-6.284;2023-08-08T07:40:41;100951.13;;;18.11;85.80
42633;BME280;28261;53.304;-6.284;2023-08-08T07:42:46;100947.72;;;18.56;83.60
42633;BME280;28261;53.304;-6.284;2023-08-08T07:44:51;100949.63;;;18.36;83.23
42633;BME280;28261;53.304;-6.284;2023-08-08T07:46:56;100944.22;;;18.18;83.25
42633;BME280;28261;53.304;-6.284;2023-08-08T07:49:00;100951.25;;;18.75;82.22
42633;BME280;28261;53.304;-6.284;2023-08-08T07:51:06;100945.81;;;19.13;80.12
42633;BME280;28261;53.304;-6.284;2023-08-08T07:53:11;100954.25;;;19.36;79.34
42633;BME280;28261;53.304;-6.284;2023-08-08T07:55:15;100957.19;;;19.69;76.88
42633;BME280;28261;53.304;-6.284;2023-08-08T07:57:19;100963.19;;;19.81;75.53
42633;BME280;28261;53.304;-6.284;2023-08-08T07:59:23;100965.22;;;19.24;77.15
42633;BME280;28261;53.304;-6.284;2023-08-08T08:01:28;100977.13;;;18.76;79.55
42633;BME280;28261;53.304;-6.284;2023-08-08T08:03:34;100978.19;;;18.65;80.99
42633;BME280;28261;53.304;-6.284;2023-08-08T08:05:38;100985.94;;;18.68;80.79
42633;BME280;28261;53.304;-6.284;2023-08-08T08:07:43;100970.91;;;18.48;80.86
42633;BME280;28261;53.304;-6.284;2023-08-08T08:09:47;100954.19;;;18.26;79.45
42633;BME280;28261;53.304;-6.284;2023-08-08T08:11:51;100952.53;;;18.25;81.72
42633;BME280;28261;53.304;-6.284;2023-08-08T08:13:55;100953.41;;;18.16;81.85
42633;BME280;28261;53.304;-6.284;2023-08-08T08:15:59;100952.56;;;18.15;82.00
42633;BME280;28261;53.304;-6.284;2023-08-08T08:18:03;100955.25;;;18.05;83.12
42633;BME280;28261;53.304;-6.284;2023-08-08T08:20:10;100957.09;;;18.05;82.78
42633;BME280;28261;53.304;-6.284;2023-08-08T08:22:15;100958.19;;;18.12;82.81
42633;BME280;28261;53.304;-6.284;2023-08-08T08:24:19;100959.13;;;18.31;82.19
42633;BME280;28261;53.304;-6.284;2023-08-08T08:26:24;100948.19;;;18.42;81.35
42633;BME280;28261;53.304;-6.284;2023-08-08T08:28:27;100951.03;;;18.40;81.04
42633;BME280;28261;53.304;-6.284;2023-08-08T08:30:32;100949.59;;;18.46;81.09
42633;BME280;28261;53.304;-6.284;2023-08-08T08:32:36;100944.72;;;18.59;80.69
42633;BME280;28261;53.304;-6.284;2023-08-08T08:34:41;100944.34;;;18.72;80.15
42633;BME280;28261;53.304;-6.284;2023-08-08T08:36:48;100934.47;;;18.73;79.86
42633;BME280;28261;53.304;-6.284;2023-08-08T08:38:51;100929.38;;;18.70;80.62
42633;BME280;28261;53.304;-6.284;2023-08-08T08:40:56;100932.78;;;18.72;80.13
42633;BME280;28261;53.304;-6.284;2023-08-08T08:43:01;100941.75;;;18.35;81.04
42633;BME280;28261;53.304;-6.284;2023-08-08T08:45:07;100946.38;;;18.05;82.52
42633;BME280;28261;53.304;-6.284;2023-08-08T08:47:12;100954.44;;;18.05;82.79
42633;BME280;28261;53.304;-6.284;2023-08-08T08:49:17;100948.19;;;18.14;82.33
42633;BME280;28261;53.304;-6.284;2023-08-08T08:51:23;100936.75;;;18.12;82.21
42633;BME280;28261;53.304;-6.284;2023-08-08T08:53:29;100945.25;;;18.07;82.20
42633;BME280;28261;53.304;-6.284;2023-08-08T08:55:33;100944.13;;;17.90;82.76
42633;BME280;28261;53.304;-6.284;2023-08-08T08:57:37;100956.47;;;17.64;82.94
42633;BME280;28261;53.304;-6.284;2023-08-08T08:59:42;100957.19;;;17.56;84.47
42633;BME280;28261;53.304;-6.284;2023-08-08T09:01:46;100969.59;;;17.67;83.83
42633;BME280;28261;53.304;-6.284;2023-08-08T09:03:50;100958.00;;;17.76;82.91
42633;BME280;28261;53.304;-6.284;2023-08-08T09:05:56;100957.56;;;17.81;82.56
42633;BME280;28261;53.304;-6.284;2023-08-08T09:08:01;100954.59;;;17.74;82.47
42633;BME280;28261;53.304;-6.284;2023-08-08T09:10:08;100950.53;;;17.70;82.47
42633;BME280;28261;53.304;-6.284;2023-08-08T09:12:12;100948.41;;;17.73;82.41
42633;BME280;28261;53.304;-6.284;2023-08-08T09:14:18;100950.00;;;17.56;82.59
42633;BME280;28261;53.304;-6.284;2023-08-08T09:16:23;100951.69;;;17.48;83.55
42633;BME280;28261;53.304;-6.284;2023-08-08T09:18:30;100955.50;;;17.45;83.28
42633;BME280;28261;53.304;-6.284;2023-08-08T09:20:35;100943.63;;;17.57;83.42
42633;BME280;28261;53.304;-6.284;2023-08-08T09:22:39;100946.16;;;17.69;82.34
42633;BME280;28261;53.304;-6.284;2023-08-08T09:24:43;100951.81;;;17.46;83.29
42633;BME280;28261;53.304;-6.284;2023-08-08T09:26:52;100952.00;;;17.35;84.29
42633;BME280;28261;53.304;-6.284;2023-08-08T09:28:56;100940.13;;;17.18;84.74
42633;BME280;28261;53.304;-6.284;2023-08-08T09:31:01;100949.31;;;17.25;84.93
42633;BME280;28261;53.304;-6.284;2023-08-08T09:33:07;100942.09;;;17.25;85.01
42633;BME280;28261;53.304;-6.284;2023-08-08T09:35:15;100947.03;;;17.30;85.48
42633;BME280;28261;53.304;-6.284;2023-08-08T09:37:27;100946.34;;;17.38;84.85
42633;BME280;28261;53.304;-6.284;2023-08-08T09:39:31;100949.56;;;17.32;85.02
42633;BME280;28261;53.304;-6.284;2023-08-08T09:41:36;100954.09;;;17.21;85.02
42633;BME280;28261;53.304;-6.284;2023-08-08T09:43:43;100951.13;;;17.24;85.62
42633;BME280;28261;53.304;-6.284;2023-08-08T09:45:48;100951.25;;;17.33;85.21
42633;BME280;28261;53.304;-6.284;2023-08-08T09:47:52;100960.56;;;17.38;84.61
42633;BME280;28261;53.304;-6.284;2023-08-08T09:50:00;100959.16;;;17.24;84.73
42633;BME280;28261;53.304;-6.284;2023-08-08T09:52:08;100960.00;;;17.15;85.01
42633;BME280;28261;53.304;-6.284;2023-08-08T09:54:16;100963.94;;;17.11;84.85
42633;BME280;28261;53.304;-6.284;2023-08-08T09:56:37;100968.03;;;16.96;85.16
42633;BME280;28261;53.304;-6.284;2023-08-08T09:58:46;100967.84;;;16.87;84.80
42633;BME280;28261;53.304;-6.284;2023-08-08T10:00:51;100966.41;;;16.83;85.01
42633;BME280;28261;53.304;-6.284;2023-08-08T10:02:54;100963.75;;;16.83;84.96
42633;BME280;28261;53.304;-6.284;2023-08-08T10:04:59;100961.19;;;16.72;84.92
42633;BME280;28261;53.304;-6.284;2023-08-08T10:07:04;100971.47;;;16.67;85.28
42633;BME280;28261;53.304;-6.284;2023-08-08T10:09:09;100959.88;;;16.56;86.48
42633;BME280;28261;53.304;-6.284;2023-08-08T10:11:13;100958.44;;;16.52;87.78
42633;BME280;28261;53.304;-6.284;2023-08-08T10:13:21;100966.88;;;16.38;88.83
42633;BME280;28261;53.304;-6.284;2023-08-08T10:15:27;100963.63;;;16.44;89.60
42633;BME280;28261;53.304;-6.284;2023-08-08T10:17:35;100962.50;;;16.47;89.24
42633;BME280;28261;53.304;-6.284;2023-08-08T10:19:40;100955.34;;;16.47;89.77
42633;BME280;28261;53.304;-6.284;2023-08-08T10:22:06;100953.22;;;16.51;89.74
42633;BME280;28261;53.304;-6.284;2023-08-08T10:24:12;100969.59;;;16.57;89.94
42633;BME280;28261;53.304;-6.284;2023-08-08T10:26:19;100976.97;;;16.75;89.77
42633;BME280;28261;53.304;-6.284;2023-08-08T10:28:26;100973.03;;;16.79;89.25
42633;BME280;28261;53.304;-6.284;2023-08-08T10:30:42;100982.19;;;16.77;89.89
42633;BME280;28261;53.304;-6.284;2023-08-08T10:32:46;100975.56;;;16.71;90.46
42633;BME280;28261;53.304;-6.284;2023-08-08T10:34:55;100976.81;;;16.67;90.67
42633;BME280;28261;53.304;-6.284;2023-08-08T10:37:04;100970.38;;;16.79;89.96
42633;BME280;28261;53.304;-6.284;2023-08-08T10:39:24;100976.00;;;16.76;90.26
42633;BME280;28261;53.304;-6.284;2023-08-08T10:41:29;100971.47;;;16.77;90.53